sensor_id;sensor_type;location;lat;lon;timestamp;temperature;humidity
7240;DHT22;3661;53.288;10.458;2022-12-07T00:00:22;1.70;99.90
7240;DHT22;3661;53.288;10.458;2022-12-07T00:02:55;1.70;99.90
7240;DHT22;3661;53.288;10.458;2022-12-07T00:05:27;1.80;99.90
7240;DHT22;3661;53.288;10.458;2022-12-07T00:08:04;1.80;99.90
7240;DHT22;3661;53.288;10.458;2022-12-07T00:10:36;1.80;99.90
7240;DHT22;3661;53.288;10.458;2022-12-07T00:13:08;1.80;99.90
7240;DHT22;3661;53.288;10.458;2022-12-07T00:15:41;1.80;99.90
7240;DHT22;3661;53.288;10.458;2022-12-07T00:18:13;1.90;99.90
7240;DHT22;3661;53.288;10.458;2022-12-07T00:20:45;1.90;99.90
7240;DHT22;3661;53.288;10.458;2022-12-07T00:23:18;1.90;99.90
7240;DHT22;3661;53.288;10.458;2022-12-07T00:25:50;1.90;99.90
7240;DHT22;3661;53.288;10.458;2022-12-07T00:28:22;1.90;99.90
7240;DHT22;3661;53.288;10.458;2022-12-07T00:31:00;2.00;99.90
7240;DHT22;3661;53.288;10.458;2022-12-07T00:33:32;2.00;99.90
7240;DHT22;3661;53.288;10.458;2022-12-07T00:36:07;2.00;99.90
7240;DHT22;3661;53.288;10.458;2022-12-07T00:38:42;2.00;99.90
7240;DHT22;3661;53.288;10.458;2022-12-07T00:41:15;2.10;99.90
7240;DHT22;3661;53.288;10.458;2022-12-07T00:43:49;2.10;99.90
7240;DHT22;3661;53.288;10.458;2022-12-07T00:46:22;2.10;99.90
7240;DHT22;3661;53.288;10.458;2022-12-07T00:48:56;2.10;99.90
7240;DHT22;3661;53.288;10.458;2022-12-07T00:51:28;2.10;99.90
7240;DHT22;3661;53.288;10.458;2022-12-07T00:54:02;2.20;99.90
7240;DHT22;3661;53.288;10.458;2022-12-07T00:56:35;2.20;99.90
7240;DHT22;3661;53.288;10.458;2022-12-07T00:59:12;2.20;99.90
7240;DHT22;3661;53.288;10.458;2022-12-07T01:01:45;2.20;99.90
7240;DHT22;3661;53.288;10.458;2022-12-07T01:04:17;2.20;99.90
7240;DHT22;3661;53.288;10.458;2022-12-07T01:06:54;2.30;99.90
7240;DHT22;3661;53.288;10.458;2022-12-07T01:09:28;2.30;99.90
7240;DHT22;3661;53.288;10.458;2022-12-07T01:12:02;2.30;99.90
7240;DHT22;3661;53.288;10.458;2022-12-07T01:14:35;2.30;99.90
7240;DHT22;3661;53.288;10.458;2022-12-07T01:17:08;2.40;99.90
7240;DHT22;3661;53.288;10.458;2022-12-07T01:19:45;2.40;99.90
7240;DHT22;3661;53.288;10.458;2022-12-07T01:22:18;2.40;99.90
7240;DHT22;3661;53.288;10.458;2022-12-07T01:24:55;2.40;99.90
7240;DHT22;3661;53.288;10.458;2022-12-07T01:27:27;2.40;99.90
7240;DHT22;3661;53.288;10.458;2022-12-07T01:29:59;2.40;99.90
7240;DHT22;3661;53.288;10.458;2022-12-07T01:32:31;2.40;99.90
7240;DHT22;3661;53.288;10.458;2022-12-07T01:35:05;2.50;99.90
7240;DHT22;3661;53.288;10.458;2022-12-07T01:37:38;2.50;99.90
7240;DHT22;3661;53.288;10.458;2022-12-07T01:40:13;2.50;99.90
7240;DHT22;3661;53.288;10.458;2022-12-07T01:42:46;2.50;99.90
7240;DHT22;3661;53.288;10.458;2022-12-07T01:45:44;2.50;99.90
7240;DHT22;3661;53.288;10.458;2022-12-07T01:48:21;2.50;99.90
7240;DHT22;3661;53.288;10.458;2022-12-07T01:50:55;2.50;99.90
7240;DHT22;3661;53.288;10.458;2022-12-07T01:53:32;2.50;99.90
7240;DHT22;3661;53.288;10.458;2022-12-07T01:56:12;2.50;99.90
7240;DHT22;3661;53.288;10.458;2022-12-07T01:58:48;2.60;99.90
7240;DHT22;3661;53.288;10.458;2022-12-07T02:01:21;2.60;99.90
7240;DHT22;3661;53.288;10.458;2022-12-07T02:03:53;2.60;99.90
7240;DHT22;3661;53.288;10.458;2022-12-07T02:06:26;2.60;99.90
7240;DHT22;3661;53.288;10.458;2022-12-07T02:08:58;2.60;99.90
7240;DHT22;3661;53.288;10.458;2022-12-07T02:11:32;2.70;99.90
7240;DHT22;3661;53.288;10.458;2022-12-07T02:14:05;2.60;99.90
7240;DHT22;3661;53.288;10.458;2022-12-07T02:16:45;2.70;99.90
7240;DHT22;3661;53.288;10.458;2022-12-07T02:25:32;2.80;99.90
7240;DHT22;3661;53.288;10.458;2022-12-07T02:28:22;2.80;99.90
7240;DHT22;3661;53.288;10.458;2022-12-07T02:31:05;2.80;99.90
7240;DHT22;3661;53.288;10.458;2022-12-07T02:33:44;2.80;99.90
7240;DHT22;3661;53.288;10.458;2022-12-07T02:36:21;2.80;99.90
7240;DHT22;3661;53.288;10.458;2022-12-07T02:39:00;2.80;99.90
7240;DHT22;3661;53.288;10.458;2022-12-07T02:41:37;2.80;99.90
7240;DHT22;3661;53.288;10.458;2022-12-07T02:44:13;2.80;99.90
7240;DHT22;3661;53.288;10.458;2022-12-07T02:46:52;2.80;99.90
7240;DHT22;3661;53.288;10.458;2022-12-07T02:49:30;2.80;99.90
7240;DHT22;3661;53.288;10.458;2022-12-07T02:52:09;2.80;99.90
7240;DHT22;3661;53.288;10.458;2022-12-07T02:54:45;2.80;99.90
7240;DHT22;3661;53.288;10.458;2022-12-07T02:57:29;2.80;99.90
7240;DHT22;3661;53.288;10.458;2022-12-07T03:00:08;2.80;99.90
7240;DHT22;3661;53.288;10.458;2022-12-07T03:02:50;2.90;99.90
7240;DHT22;3661;53.288;10.458;2022-12-07T03:05:54;2.90;99.90
7240;DHT22;3661;53.288;10.458;2022-12-07T03:08:37;2.80;99.90
7240;DHT22;3661;53.288;10.458;2022-12-07T03:11:13;2.80;99.90
7240;DHT22;3661;53.288;10.458;2022-12-07T03:13:50;2.80;99.90
7240;DHT22;3661;53.288;10.458;2022-12-07T03:16:28;2.70;99.90
7240;DHT22;3661;53.288;10.458;2022-12-07T03:19:08;2.70;99.90
7240;DHT22;3661;53.288;10.458;2022-12-07T03:21:47;2.70;99.90
7240;DHT22;3661;53.288;10.458;2022-12-07T03:24:24;2.70;99.90
7240;DHT22;3661;53.288;10.458;2022-12-07T03:27:07;2.60;99.90
7240;DHT22;3661;53.288;10.458;2022-12-07T03:29:48;2.60;99.90
7240;DHT22;3661;53.288;10.458;2022-12-07T03:32:27;2.60;99.90
7240;DHT22;3661;53.288;10.458;2022-12-07T03:35:09;2.50;99.90
7240;DHT22;3661;53.288;10.458;2022-12-07T03:37:49;2.50;99.90
7240;DHT22;3661;53.288;10.458;2022-12-07T03:40:30;2.50;99.90
7240;DHT22;3661;53.288;10.458;2022-12-07T03:43:06;2.50;99.90
7240;DHT22;3661;53.288;10.458;2022-12-07T03:45:40;2.50;99.90
7240;DHT22;3661;53.288;10.458;2022-12-07T03:48:20;2.50;99.90
7240;DHT22;3661;53.288;10.458;2022-12-07T03:51:01;2.50;99.90
7240;DHT22;3661;53.288;10.458;2022-12-07T03:53:42;2.50;99.90
7240;DHT22;3661;53.288;10.458;2022-12-07T03:56:17;2.50;99.90
7240;DHT22;3661;53.288;10.458;2022-12-07T03:58:51;2.50;99.90
7240;DHT22;3661;53.288;10.458;2022-12-07T04:01:27;2.40;99.90
7240;DHT22;3661;53.288;10.458;2022-12-07T04:04:01;2.40;99.90
7240;DHT22;3661;53.288;10.458;2022-12-07T04:06:38;2.40;99.90
7240;DHT22;3661;53.288;10.458;2022-12-07T04:09:10;2.40;99.90
7240;DHT22;3661;53.288;10.458;2022-12-07T04:11:45;2.40;99.90
7240;DHT22;3661;53.288;10.458;2022-12-07T04:14:18;2.40;99.90
7240;DHT22;3661;53.288;10.458;2022-12-07T04:16:51;2.30;99.90
7240;DHT22;3661;53.288;10.458;2022-12-07T04:19:25;2.30;99.90
7240;DHT22;3661;53.288;10.458;2022-12-07T04:22:00;2.30;99.90
7240;DHT22;3661;53.288;10.458;2022-12-07T04:24:34;2.20;99.90
7240;DHT22;3661;53.288;10.458;2022-12-07T04:27:09;2.20;99.90
7240;DHT22;3661;53.288;10.458;2022-12-07T04:29:41;2.20;99.90
7240;DHT22;3661;53.288;10.458;2022-12-07T04:32:13;2.20;99.90
7240;DHT22;3661;53.288;10.458;2022-12-07T04:34:45;2.10;99.90
7240;DHT22;3661;53.288;10.458;2022-12-07T04:37:19;2.10;99.90
7240;DHT22;3661;53.288;10.458;2022-12-07T04:39:51;2.10;99.90
7240;DHT22;3661;53.288;10.458;2022-12-07T04:42:24;2.10;99.90
7240;DHT22;3661;53.288;10.458;2022-12-07T04:44:56;2.10;99.90
7240;DHT22;3661;53.288;10.458;2022-12-07T04:47:31;2.10;99.90
7240;DHT22;3661;53.288;10.458;2022-12-07T04:50:04;2.00;99.90
7240;DHT22;3661;53.288;10.458;2022-12-07T04:52:38;2.00;99.90
7240;DHT22;3661;53.288;10.458;2022-12-07T04:55:10;2.00;99.90
7240;DHT22;3661;53.288;10.458;2022-12-07T04:57:43;2.00;99.90
7240;DHT22;3661;53.288;10.458;2022-12-07T05:00:18;1.90;99.90
7240;DHT22;3661;53.288;10.458;2022-12-07T05:02:50;1.90;99.90
7240;DHT22;3661;53.288;10.458;2022-12-07T05:05:24;1.90;99.90
7240;DHT22;3661;53.288;10.458;2022-12-07T05:07:58;1.90;99.90
7240;DHT22;3661;53.288;10.458;2022-12-07T05:10:31;1.80;99.90
7240;DHT22;3661;53.288;10.458;2022-12-07T05:13:03;1.80;99.90
7240;DHT22;3661;53.288;10.458;2022-12-07T05:15:37;1.80;99.90
7240;DHT22;3661;53.288;10.458;2022-12-07T05:18:13;1.80;99.90
7240;DHT22;3661;53.288;10.458;2022-12-07T05:20:46;1.70;99.90
7240;DHT22;3661;53.288;10.458;2022-12-07T05:23:20;1.70;99.90
7240;DHT22;3661;53.288;10.458;2022-12-07T05:25:52;1.70;99.90
7240;DHT22;3661;53.288;10.458;2022-12-07T05:28:25;1.70;99.90
7240;DHT22;3661;53.288;10.458;2022-12-07T05:30:57;1.60;99.90
7240;DHT22;3661;53.288;10.458;2022-12-07T05:33:30;1.60;99.90
7240;DHT22;3661;53.288;10.458;2022-12-07T05:36:07;1.60;99.90
7240;DHT22;3661;53.288;10.458;2022-12-07T05:38:43;1.60;99.90
7240;DHT22;3661;53.288;10.458;2022-12-07T05:41:17;1.60;99.90
7240;DHT22;3661;53.288;10.458;2022-12-07T05:44:08;1.50;99.90
7240;DHT22;3661;53.288;10.458;2022-12-07T05:46:40;1.50;99.90
7240;DHT22;3661;53.288;10.458;2022-12-07T05:49:14;1.50;99.90
7240;DHT22;3661;53.288;10.458;2022-12-07T05:51:46;1.50;99.90
7240;DHT22;3661;53.288;10.458;2022-12-07T05:54:20;1.40;99.90
7240;DHT22;3661;53.288;10.458;2022-12-07T05:56:52;1.40;99.90
7240;DHT22;3661;53.288;10.458;2022-12-07T05:59:24;1.40;99.90
7240;DHT22;3661;53.288;10.458;2022-12-07T06:02:00;1.40;99.90
7240;DHT22;3661;53.288;10.458;2022-12-07T06:04:34;1.30;99.90
7240;DHT22;3661;53.288;10.458;2022-12-07T06:07:08;1.30;99.90
7240;DHT22;3661;53.288;10.458;2022-12-07T06:09:41;1.30;99.90
7240;DHT22;3661;53.288;10.458;2022-12-07T06:12:14;1.30;99.90
7240;DHT22;3661;53.288;10.458;2022-12-07T06:15:04;1.20;99.90
7240;DHT22;3661;53.288;10.458;2022-12-07T06:17:39;1.20;99.90
7240;DHT22;3661;53.288;10.458;2022-12-07T06:20:11;1.20;99.90
7240;DHT22;3661;53.288;10.458;2022-12-07T06:22:44;1.20;99.90
7240;DHT22;3661;53.288;10.458;2022-12-07T06:25:18;1.10;99.90
7240;DHT22;3661;53.288;10.458;2022-12-07T06:27:50;1.10;99.90
7240;DHT22;3661;53.288;10.458;2022-12-07T06:30:23;1.10;99.90
7240;DHT22;3661;53.288;10.458;2022-12-07T06:32:55;1.00;99.90
7240;DHT22;3661;53.288;10.458;2022-12-07T06:35:27;1.00;99.90
7240;DHT22;3661;53.288;10.458;2022-12-07T06:37:59;1.00;99.90
7240;DHT22;3661;53.288;10.458;2022-12-07T06:40:32;1.00;99.90
7240;DHT22;3661;53.288;10.458;2022-12-07T06:43:04;0.90;99.90
7240;DHT22;3661;53.288;10.458;2022-12-07T06:45:37;0.90;99.90
7240;DHT22;3661;53.288;10.458;2022-12-07T06:48:09;0.90;99.90
7240;DHT22;3661;53.288;10.458;2022-12-07T06:50:41;0.90;99.90
7240;DHT22;3661;53.288;10.458;2022-12-07T06:53:13;0.90;99.90
7240;DHT22;3661;53.288;10.458;2022-12-07T06:55:47;0.90;99.90
7240;DHT22;3661;53.288;10.458;2022-12-07T06:58:19;0.90;99.90
7240;DHT22;3661;53.288;10.458;2022-12-07T07:00:51;0.90;99.90
7240;DHT22;3661;53.288;10.458;2022-12-07T07:03:23;0.80;99.90
7240;DHT22;3661;53.288;10.458;2022-12-07T07:05:55;0.80;99.90
7240;DHT22;3661;53.288;10.458;2022-12-07T07:08:27;0.80;99.90
7240;DHT22;3661;53.288;10.458;2022-12-07T07:11:01;0.80;99.90
7240;DHT22;3661;53.288;10.458;2022-12-07T07:13:33;0.80;99.90
7240;DHT22;3661;53.288;10.458;2022-12-07T07:16:06;0.80;99.90
7240;DHT22;3661;53.288;10.458;2022-12-07T07:18:39;0.80;99.90
7240;DHT22;3661;53.288;10.458;2022-12-07T07:21:11;0.80;99.90
7240;DHT22;3661;53.288;10.458;2022-12-07T07:23:43;0.80;99.90
7240;DHT22;3661;53.288;10.458;2022-12-07T07:26:17;0.70;99.90
7240;DHT22;3661;53.288;10.458;2022-12-07T07:28:50;0.70;99.90
7240;DHT22;3661;53.288;10.458;2022-12-07T07:31:22;0.70;99.90
7240;DHT22;3661;53.288;10.458;2022-12-07T07:33:54;0.80;99.90
7240;DHT22;3661;53.288;10.458;2022-12-07T07:36:26;0.80;99.90
7240;DHT22;3661;53.288;10.458;2022-12-07T07:38:58;0.80;99.90
7240;DHT22;3661;53.288;10.458;2022-12-07T07:41:32;0.80;99.90
7240;DHT22;3661;53.288;10.458;2022-12-07T07:44:04;0.80;99.90
7240;DHT22;3661;53.288;10.458;2022-12-07T07:46:36;0.80;99.90
7240;DHT22;3661;53.288;10.458;2022-12-07T07:49:09;0.80;99.90
7240;DHT22;3661;53.288;10.458;2022-12-07T07:51:42;0.80;99.90
7240;DHT22;3661;53.288;10.458;2022-12-07T07:54:17;0.80;99.90
7240;DHT22;3661;53.288;10.458;2022-12-07T07:56:51;0.90;99.90
7240;DHT22;3661;53.288;10.458;2022-12-07T07:59:27;0.90;99.90
7240;DHT22;3661;53.288;10.458;2022-12-07T08:02:01;0.90;99.90
7240;DHT22;3661;53.288;10.458;2022-12-07T08:04:33;0.90;99.90
7240;DHT22;3661;53.288;10.458;2022-12-07T08:07:05;1.00;99.90
7240;DHT22;3661;53.288;10.458;2022-12-07T08:09:38;1.00;99.90
7240;DHT22;3661;53.288;10.458;2022-12-07T08:12:11;1.00;99.90
7240;DHT22;3661;53.288;10.458;2022-12-07T08:14:43;1.00;99.90
7240;DHT22;3661;53.288;10.458;2022-12-07T08:17:15;1.00;99.90
7240;DHT22;3661;53.288;10.458;2022-12-07T08:19:47;1.00;99.90
7240;DHT22;3661;53.288;10.458;2022-12-07T08:22:19;1.10;99.90
7240;DHT22;3661;53.288;10.458;2022-12-07T08:24:52;1.10;99.90
7240;DHT22;3661;53.288;10.458;2022-12-07T08:27:25;1.10;99.90
7240;DHT22;3661;53.288;10.458;2022-12-07T08:29:57;1.10;99.90
7240;DHT22;3661;53.288;10.458;2022-12-07T08:32:30;1.10;99.90
7240;DHT22;3661;53.288;10.458;2022-12-07T08:35:02;1.20;99.90
7240;DHT22;3661;53.288;10.458;2022-12-07T08:37:34;1.20;99.90
7240;DHT22;3661;53.288;10.458;2022-12-07T08:40:07;1.20;99.90
7240;DHT22;3661;53.288;10.458;2022-12-07T08:42:41;1.20;99.90
7240;DHT22;3661;53.288;10.458;2022-12-07T08:45:15;1.20;99.90
7240;DHT22;3661;53.288;10.458;2022-12-07T08:47:50;1.30;99.90
7240;DHT22;3661;53.288;10.458;2022-12-07T08:50:24;1.30;99.90
7240;DHT22;3661;53.288;10.458;2022-12-07T08:52:58;1.30;99.90
7240;DHT22;3661;53.288;10.458;2022-12-07T08:55:31;1.30;99.90
7240;DHT22;3661;53.288;10.458;2022-12-07T08:58:05;1.40;99.90
7240;DHT22;3661;53.288;10.458;2022-12-07T09:00:38;1.40;99.90
7240;DHT22;3661;53.288;10.458;2022-12-07T09:03:10;1.40;99.90
7240;DHT22;3661;53.288;10.458;2022-12-07T09:05:42;1.40;99.90
7240;DHT22;3661;53.288;10.458;2022-12-07T09:08:15;1.50;99.90
7240;DHT22;3661;53.288;10.458;2022-12-07T09:10:47;1.60;99.90
7240;DHT22;3661;53.288;10.458;2022-12-07T09:13:21;1.60;99.90
7240;DHT22;3661;53.288;10.458;2022-12-07T09:15:53;1.60;99.90
7240;DHT22;3661;53.288;10.458;2022-12-07T09:18:28;1.70;99.90
7240;DHT22;3661;53.288;10.458;2022-12-07T09:21:01;1.70;99.90
7240;DHT22;3661;53.288;10.458;2022-12-07T09:23:33;1.80;99.90
7240;DHT22;3661;53.288;10.458;2022-12-07T09:26:05;1.80;99.90
7240;DHT22;3661;53.288;10.458;2022-12-07T09:28:39;1.90;99.90
7240;DHT22;3661;53.288;10.458;2022-12-07T09:31:13;1.90;99.90
7240;DHT22;3661;53.288;10.458;2022-12-07T09:33:45;1.90;99.90
7240;DHT22;3661;53.288;10.458;2022-12-07T09:36:17;2.00;99.90
7240;DHT22;3661;53.288;10.458;2022-12-07T09:38:49;2.00;99.90
7240;DHT22;3661;53.288;10.458;2022-12-07T09:41:22;2.10;99.90
7240;DHT22;3661;53.288;10.458;2022-12-07T09:44:03;2.10;99.90
7240;DHT22;3661;53.288;10.458;2022-12-07T09:46:37;2.10;99.90
7240;DHT22;3661;53.288;10.458;2022-12-07T09:49:12;2.10;99.90
7240;DHT22;3661;53.288;10.458;2022-12-07T09:51:47;2.20;99.90
7240;DHT22;3661;53.288;10.458;2022-12-07T09:54:19;2.20;99.90
7240;DHT22;3661;53.288;10.458;2022-12-07T09:56:52;2.30;99.90
7240;DHT22;3661;53.288;10.458;2022-12-07T09:59:26;2.40;99.90
7240;DHT22;3661;53.288;10.458;2022-12-07T10:02:22;2.40;99.90
7240;DHT22;3661;53.288;10.458;2022-12-07T10:04:55;2.50;99.90
7240;DHT22;3661;53.288;10.458;2022-12-07T10:07:29;2.60;99.90
7240;DHT22;3661;53.288;10.458;2022-12-07T10:10:04;2.60;99.90
7240;DHT22;3661;53.288;10.458;2022-12-07T10:12:53;2.70;99.90
7240;DHT22;3661;53.288;10.458;2022-12-07T10:15:45;2.70;99.90
7240;DHT22;3661;53.288;10.458;2022-12-07T10:18:29;2.80;99.90
7240;DHT22;3661;53.288;10.458;2022-12-07T10:21:10;2.90;99.90
7240;DHT22;3661;53.288;10.458;2022-12-07T10:23:59;2.90;99.90
7240;DHT22;3661;53.288;10.458;2022-12-07T10:26:34;2.90;99.90
7240;DHT22;3661;53.288;10.458;2022-12-07T10:29:16;3.00;99.90
7240;DHT22;3661;53.288;10.458;2022-12-07T10:31:54;3.00;99.90
7240;DHT22;3661;53.288;10.458;2022-12-07T10:34:29;3.00;99.90
7240;DHT22;3661;53.288;10.458;2022-12-07T10:37:15;3.10;99.90
7240;DHT22;3661;53.288;10.458;2022-12-07T10:39:49;3.10;99.90
7240;DHT22;3661;53.288;10.458;2022-12-07T10:42:23;3.10;99.90
7240;DHT22;3661;53.288;10.458;2022-12-07T10:45:10;3.10;99.90
7240;DHT22;3661;53.288;10.458;2022-12-07T10:47:49;3.10;99.90
7240;DHT22;3661;53.288;10.458;2022-12-07T10:53:43;3.20;99.90
7240;DHT22;3661;53.288;10.458;2022-12-07T10:56:40;3.20;99.90
7240;DHT22;3661;53.288;10.458;2022-12-07T10:59:38;3.20;99.90
7240;DHT22;3661;53.288;10.458;2022-12-07T11:02:35;3.20;99.90
7240;DHT22;3661;53.288;10.458;2022-12-07T11:05:18;3.30;99.90
7240;DHT22;3661;53.288;10.458;2022-12-07T11:08:00;3.30;99.90
7240;DHT22;3661;53.288;10.458;2022-12-07T11:10:40;3.30;99.90
7240;DHT22;3661;53.288;10.458;2022-12-07T11:13:26;3.30;99.90
7240;DHT22;3661;53.288;10.458;2022-12-07T11:16:12;3.30;99.90
7240;DHT22;3661;53.288;10.458;2022-12-07T11:19:13;3.40;99.90
7240;DHT22;3661;53.288;10.458;2022-12-07T11:21:56;3.40;99.90
7240;DHT22;3661;53.288;10.458;2022-12-07T11:24:35;3.40;99.90
7240;DHT22;3661;53.288;10.458;2022-12-07T11:27:21;3.50;99.90
7240;DHT22;3661;53.288;10.458;2022-12-07T11:30:18;3.50;99.90
7240;DHT22;3661;53.288;10.458;2022-12-07T11:33:04;3.50;99.90
7240;DHT22;3661;53.288;10.458;2022-12-07T11:35:47;3.50;99.90
7240;DHT22;3661;53.288;10.458;2022-12-07T11:38:24;3.60;99.90
7240;DHT22;3661;53.288;10.458;2022-12-07T11:41:01;3.60;99.90
7240;DHT22;3661;53.288;10.458;2022-12-07T11:43:54;3.60;99.90
7240;DHT22;3661;53.288;10.458;2022-12-07T11:46:29;3.60;99.90
7240;DHT22;3661;53.288;10.458;2022-12-07T11:49:12;3.60;99.90
7240;DHT22;3661;53.288;10.458;2022-12-07T11:51:46;3.60;99.90
7240;DHT22;3661;53.288;10.458;2022-12-07T11:54:25;3.70;99.90
7240;DHT22;3661;53.288;10.458;2022-12-07T11:57:02;3.70;99.90
7240;DHT22;3661;53.288;10.458;2022-12-07T11:59:39;3.70;99.90
7240;DHT22;3661;53.288;10.458;2022-12-07T12:02:14;3.70;99.90
7240;DHT22;3661;53.288;10.458;2022-12-07T12:04:52;3.70;99.90
7240;DHT22;3661;53.288;10.458;2022-12-07T12:07:27;3.70;99.90
7240;DHT22;3661;53.288;10.458;2022-12-07T12:10:06;3.70;99.90
7240;DHT22;3661;53.288;10.458;2022-12-07T12:16:11;3.70;99.90
7240;DHT22;3661;53.288;10.458;2022-12-07T12:19:11;3.70;99.90
7240;DHT22;3661;53.288;10.458;2022-12-07T12:21:47;3.80;99.90
7240;DHT22;3661;53.288;10.458;2022-12-07T12:24:24;3.80;99.90
7240;DHT22;3661;53.288;10.458;2022-12-07T12:27:02;3.80;99.90
7240;DHT22;3661;53.288;10.458;2022-12-07T12:29:38;3.80;99.90
7240;DHT22;3661;53.288;10.458;2022-12-07T12:32:16;3.80;99.90
7240;DHT22;3661;53.288;10.458;2022-12-07T12:35:02;3.80;99.90
7240;DHT22;3661;53.288;10.458;2022-12-07T12:37:44;3.80;99.90
7240;DHT22;3661;53.288;10.458;2022-12-07T12:40:43;3.80;99.90
7240;DHT22;3661;53.288;10.458;2022-12-07T12:43:42;3.80;99.90
7240;DHT22;3661;53.288;10.458;2022-12-07T12:46:45;3.80;99.90
7240;DHT22;3661;53.288;10.458;2022-12-07T12:52:56;3.80;99.90
7240;DHT22;3661;53.288;10.458;2022-12-07T12:55:54;3.80;99.90
7240;DHT22;3661;53.288;10.458;2022-12-07T12:58:38;3.80;99.90
7240;DHT22;3661;53.288;10.458;2022-12-07T13:01:46;3.80;99.90
7240;DHT22;3661;53.288;10.458;2022-12-07T13:04:40;3.80;99.90
7240;DHT22;3661;53.288;10.458;2022-12-07T13:10:44;3.90;99.90
7240;DHT22;3661;53.288;10.458;2022-12-07T13:13:33;3.90;99.90
7240;DHT22;3661;53.288;10.458;2022-12-07T13:22:46;3.90;99.90
7240;DHT22;3661;53.288;10.458;2022-12-07T13:25:27;3.90;99.90
7240;DHT22;3661;53.288;10.458;2022-12-07T13:28:09;3.90;99.90
7240;DHT22;3661;53.288;10.458;2022-12-07T13:30:54;3.90;99.90
7240;DHT22;3661;53.288;10.458;2022-12-07T13:33:34;4.00;99.90
7240;DHT22;3661;53.288;10.458;2022-12-07T13:36:16;3.90;99.90
7240;DHT22;3661;53.288;10.458;2022-12-07T13:38:53;3.90;99.90
7240;DHT22;3661;53.288;10.458;2022-12-07T13:41:27;3.90;99.90
7240;DHT22;3661;53.288;10.458;2022-12-07T13:44:02;3.90;99.90
7240;DHT22;3661;53.288;10.458;2022-12-07T13:46:46;3.90;99.90
7240;DHT22;3661;53.288;10.458;2022-12-07T13:49:21;3.90;99.90
7240;DHT22;3661;53.288;10.458;2022-12-07T13:51:55;3.90;99.90
7240;DHT22;3661;53.288;10.458;2022-12-07T13:54:46;3.90;99.90
7240;DHT22;3661;53.288;10.458;2022-12-07T13:57:18;3.90;99.90
7240;DHT22;3661;53.288;10.458;2022-12-07T13:59:51;3.80;99.90
7240;DHT22;3661;53.288;10.458;2022-12-07T14:02:26;3.80;99.90
7240;DHT22;3661;53.288;10.458;2022-12-07T14:05:08;3.80;99.90
7240;DHT22;3661;53.288;10.458;2022-12-07T14:07:52;3.80;99.90
7240;DHT22;3661;53.288;10.458;2022-12-07T14:10:28;3.80;99.90
7240;DHT22;3661;53.288;10.458;2022-12-07T14:13:02;3.80;99.90
7240;DHT22;3661;53.288;10.458;2022-12-07T14:15:35;3.70;99.90
7240;DHT22;3661;53.288;10.458;2022-12-07T14:18:25;3.70;99.90
7240;DHT22;3661;53.288;10.458;2022-12-07T14:21:05;3.70;99.90
7240;DHT22;3661;53.288;10.458;2022-12-07T14:23:39;3.70;99.90
7240;DHT22;3661;53.288;10.458;2022-12-07T14:26:14;3.60;99.90
7240;DHT22;3661;53.288;10.458;2022-12-07T14:28:47;3.60;99.90
7240;DHT22;3661;53.288;10.458;2022-12-07T14:31:23;3.60;99.90
7240;DHT22;3661;53.288;10.458;2022-12-07T14:33:59;3.50;99.90
7240;DHT22;3661;53.288;10.458;2022-12-07T14:36:31;3.50;99.90
7240;DHT22;3661;53.288;10.458;2022-12-07T14:39:03;3.40;99.90
7240;DHT22;3661;53.288;10.458;2022-12-07T14:41:37;3.30;99.90
7240;DHT22;3661;53.288;10.458;2022-12-07T14:44:24;3.30;99.90
7240;DHT22;3661;53.288;10.458;2022-12-07T14:46:56;3.30;99.90
7240;DHT22;3661;53.288;10.458;2022-12-07T14:49:28;3.20;99.90
7240;DHT22;3661;53.288;10.458;2022-12-07T14:52:00;3.20;99.90
7240;DHT22;3661;53.288;10.458;2022-12-07T14:54:32;3.10;99.90
7240;DHT22;3661;53.288;10.458;2022-12-07T14:57:08;3.10;99.90
7240;DHT22;3661;53.288;10.458;2022-12-07T14:59:40;3.00;99.90
7240;DHT22;3661;53.288;10.458;2022-12-07T15:02:14;3.00;99.90
7240;DHT22;3661;53.288;10.458;2022-12-07T15:04:46;3.00;99.90
7240;DHT22;3661;53.288;10.458;2022-12-07T15:07:20;2.90;99.90
7240;DHT22;3661;53.288;10.458;2022-12-07T15:09:54;2.90;99.90
7240;DHT22;3661;53.288;10.458;2022-12-07T15:12:27;2.80;99.90
7240;DHT22;3661;53.288;10.458;2022-12-07T15:15:00;2.80;99.90
7240;DHT22;3661;53.288;10.458;2022-12-07T15:17:32;2.70;99.90
7240;DHT22;3661;53.288;10.458;2022-12-07T15:20:05;2.70;99.90
7240;DHT22;3661;53.288;10.458;2022-12-07T15:22:37;2.70;99.90
7240;DHT22;3661;53.288;10.458;2022-12-07T15:25:12;2.60;99.90
7240;DHT22;3661;53.288;10.458;2022-12-07T15:27:46;2.50;99.90
7240;DHT22;3661;53.288;10.458;2022-12-07T15:30:18;2.50;99.90
7240;DHT22;3661;53.288;10.458;2022-12-07T15:32:50;2.40;99.90
7240;DHT22;3661;53.288;10.458;2022-12-07T15:35:23;2.40;99.90
7240;DHT22;3661;53.288;10.458;2022-12-07T15:37:55;2.40;99.90
7240;DHT22;3661;53.288;10.458;2022-12-07T15:40:27;2.30;99.90
7240;DHT22;3661;53.288;10.458;2022-12-07T15:43:00;2.30;99.90
7240;DHT22;3661;53.288;10.458;2022-12-07T15:45:32;2.20;99.90
7240;DHT22;3661;53.288;10.458;2022-12-07T15:48:04;2.20;99.90
7240;DHT22;3661;53.288;10.458;2022-12-07T15:50:36;2.20;99.90
7240;DHT22;3661;53.288;10.458;2022-12-07T15:53:10;2.10;99.90
7240;DHT22;3661;53.288;10.458;2022-12-07T15:55:42;2.10;99.90
7240;DHT22;3661;53.288;10.458;2022-12-07T15:58:15;2.10;99.90
7240;DHT22;3661;53.288;10.458;2022-12-07T16:00:48;2.00;99.90
7240;DHT22;3661;53.288;10.458;2022-12-07T16:03:20;2.00;99.90
7240;DHT22;3661;53.288;10.458;2022-12-07T16:05:53;2.00;99.90
7240;DHT22;3661;53.288;10.458;2022-12-07T16:08:25;1.90;99.90
7240;DHT22;3661;53.288;10.458;2022-12-07T16:10:57;1.90;99.90
7240;DHT22;3661;53.288;10.458;2022-12-07T16:13:30;1.90;99.90
7240;DHT22;3661;53.288;10.458;2022-12-07T16:16:03;1.80;99.90
7240;DHT22;3661;53.288;10.458;2022-12-07T16:18:36;1.80;99.90
7240;DHT22;3661;53.288;10.458;2022-12-07T16:21:08;1.70;99.90
7240;DHT22;3661;53.288;10.458;2022-12-07T16:23:41;1.70;99.90
7240;DHT22;3661;53.288;10.458;2022-12-07T16:26:16;1.70;99.90
7240;DHT22;3661;53.288;10.458;2022-12-07T16:28:51;1.60;99.90
7240;DHT22;3661;53.288;10.458;2022-12-07T16:31:25;1.60;99.90
7240;DHT22;3661;53.288;10.458;2022-12-07T16:33:58;1.50;99.90
7240;DHT22;3661;53.288;10.458;2022-12-07T16:36:30;1.50;99.90
7240;DHT22;3661;53.288;10.458;2022-12-07T16:39:03;1.40;99.90
7240;DHT22;3661;53.288;10.458;2022-12-07T16:41:35;1.40;99.90
7240;DHT22;3661;53.288;10.458;2022-12-07T16:44:11;1.40;99.90
7240;DHT22;3661;53.288;10.458;2022-12-07T16:46:44;1.30;99.90
7240;DHT22;3661;53.288;10.458;2022-12-07T16:49:16;1.30;99.90
7240;DHT22;3661;53.288;10.458;2022-12-07T16:51:49;1.20;99.90
7240;DHT22;3661;53.288;10.458;2022-12-07T16:54:21;1.20;99.90
7240;DHT22;3661;53.288;10.458;2022-12-07T16:56:54;1.10;99.90
7240;DHT22;3661;53.288;10.458;2022-12-07T16:59:27;1.10;99.90
7240;DHT22;3661;53.288;10.458;2022-12-07T17:01:59;1.00;99.90
7240;DHT22;3661;53.288;10.458;2022-12-07T17:04:32;1.00;99.90
7240;DHT22;3661;53.288;10.458;2022-12-07T17:07:05;1.00;99.90
7240;DHT22;3661;53.288;10.458;2022-12-07T17:09:37;0.90;99.90
7240;DHT22;3661;53.288;10.458;2022-12-07T17:12:09;0.90;99.90
7240;DHT22;3661;53.288;10.458;2022-12-07T17:14:44;0.90;99.90
7240;DHT22;3661;53.288;10.458;2022-12-07T17:17:33;0.80;99.90
7240;DHT22;3661;53.288;10.458;2022-12-07T17:20:06;0.80;99.90
7240;DHT22;3661;53.288;10.458;2022-12-07T17:22:39;0.80;99.90
7240;DHT22;3661;53.288;10.458;2022-12-07T17:25:11;0.70;99.90